x

Buzzards Bay, Ma (buzm3) Weather Station

3:00 - Thu 19th Jan 2017 All times are EST. -5 hours from GMT.

  • Wind
    11mph
  • Air Temp 37°f
  • Sea Pressure 1015.8mb
  • Buzzards Bay, Ma
  • Buzzards Bay, Ma

More Historic Weather Station data

Upgrade to MSW Pro to gain access to the past 30 days of data for over 8000 Wavebouys and Weather Stations around the globe.

Join Pro

Comparision Forecast

View Surf forecast
   
jeu. 01/19 3:00 11
mph
1015.8mb 37f
2:00 14 15 mph 1016.1mb 37f
1:00 15 16 mph 1015.4mb 37f
12:00 14 15 mph 1015.8mb 39f
mer. 01/18 11:00 13 14 mph 1015mb 39f
10:00 15 16 mph 1015.4mb 39f
9:00 15 17 mph 1016.3mb 39f
8:00 16 18 mph 1016mb 40f
7:00 16 17 mph 1015.9mb 39f
6:00 16 18 mph 1015.2mb 39f
5:00 18 21 mph 1014.1mb 39f
4:00 20 22 mph 1013.8mb 40f
3:00 22 24 mph 1013.1mb 40f
2:00 20 22 mph 1012.3mb 40f
1:00 20 22 mph 1011.7mb 40f
12:00 21 22 mph 1011.7mb 39f
11:00 18 21 mph 1013mb 39f
10:00 20 22 mph 1013.7mb 39f
9:00 18 21 mph 1013.3mb 39f
8:00 21 22 mph 1013.2mb 39f
7:00 22 24 mph 1013.4mb 39f
6:00 21 23 mph 1013.6mb 40f
5:00 23 25 mph 1013.4mb 39f
4:00 22 25 mph 1014.3mb 39f
3:00 20 22 mph 1014.5mb 40f
2:00 21 23 mph 1015.4mb 40f
1:00 20 22 mph 1016.2mb 40f
12:00 18 20 mph 1017.8mb 40f
mar. 01/17 11:00 21 24 mph 1018mb 40f
10:00 21 23 mph 1019.1mb 41f
9:00 15 17 mph 1020.2mb 40f
8:00 11 13 mph 1021.1mb 40f
7:00 15 16 mph 1020.8mb 39f
6:00 13 14 mph 1021.3mb 39f
5:00 8 9 mph 1021.9mb 39f
4:00 9
mph
1021.9mb 39f
3:00 7 8 mph 1022.1mb 39f
2:00 10
mph
1022.2mb 38f
1:00 10 11 mph 1022.5mb 37f
12:00 10 11 mph 1023.5mb 38f
11:00 9 10 mph 1024.1mb 38f
10:00 6 7 mph 1024.7mb 38f
9:00 7 8 mph 1024.6mb 39f
8:00 9 10 mph 1024.1mb 39f
7:00 13 14 mph 1023.5mb 40f
6:00 15 17 mph 1023.5mb 39f
5:00 15 17 mph 1023.3mb 39f
4:00 20 21 mph 1023.3mb 39f
3:00 22 24 mph 1023.3mb 40f
2:00 20 22 mph 1023.8mb 40f
1:00 18 21 mph 1023.9mb 40f
12:00 21 23 mph 1024.6mb 40f
lun. 01/16 11:00 24 26 mph 1025.1mb 39f
10:00 21 22 mph 1025.9mb 39f
9:00 23 24 mph 1026.3mb 39f
8:00 20 21 mph 1026.7mb 39f
7:00 22 23 mph 1027mb 39f
6:00 25 26 mph 1026.7mb 38f
5:00 23 24 mph 1027.2mb 38f
4:00 23 24 mph 1027.3mb 37f
3:00 21 23 mph 1027.5mb 37f
2:00 23 24 mph 1027.9mb 37f
1:00 20 22 mph 1028.6mb 37f
12:00 15 17 mph 1029.4mb 38f
11:00 9 10 mph 1030.5mb 36f
10:00 14 15 mph 1031.1mb 38f
9:00 8 9 mph 1031mb 37f
8:00 6 8 mph 1031.1mb 36f
7:00 7 8 mph 1031mb 34f
6:00 8 9 mph 1030.9mb 33f
5:00 8
mph
1030.8mb 32f
4:00 8
mph
1031.1mb 31f
3:00 10 11 mph 1030.9mb 32f
2:00 8 9 mph 1030.7mb 32f
1:00 6 7 mph 1030.1mb 34f
12:00 10 11 mph 1029.7mb 34f
dim. 01/15 11:00 8 9 mph 1029.7mb 35f
10:00 7 8 mph 1029.6mb 35f
9:00 7 8 mph 1029.6mb 36f
8:00 6 7 mph 1028.9mb 36f
7:00 8 9 mph 1028.3mb 36f
6:00 7 8 mph 1027.9mb 37f
5:00 7 8 mph 1027.2mb 37f
4:00 9
mph
1026.6mb 37f
3:00 9 11 mph 1026.1mb 37f
2:00 9 13 mph 1025.6mb 35f
1:00 11 13 mph 1025.5mb 34f
12:00 11 13 mph 1025.7mb 33f
11:00 15 17 mph 1026mb 32f
10:00 18 22 mph 1026.5mb 32f